createdAt,value
2022-08-05T00:01:36.425Z,6.30
2022-08-05T00:04:15.866Z,6.47
2022-08-05T00:06:43.514Z,5.40
2022-08-05T00:09:13.138Z,5.50
2022-08-05T00:11:49.423Z,5.70
2022-08-05T00:14:22.731Z,5.70
2022-08-05T00:16:56.213Z,5.53
2022-08-05T00:19:24.888Z,5.30
2022-08-05T00:21:59.420Z,5.87
2022-08-05T00:24:30.895Z,5.30
2022-08-05T00:26:58.724Z,4.90
2022-08-05T00:29:26.081Z,5.70
2022-08-05T00:32:10.514Z,5.73
2022-08-05T00:34:54.615Z,4.77
2022-08-05T00:37:51.414Z,4.70
2022-08-05T00:40:14.762Z,5.20
2022-08-05T00:42:49.122Z,4.90
2022-08-05T00:45:17.238Z,5.00
2022-08-05T00:47:57.702Z,5.63
2022-08-05T00:50:32.923Z,5.37
2022-08-05T00:52:59.596Z,5.03
2022-08-05T00:55:42.351Z,4.70
2022-08-05T00:58:13.457Z,5.67
2022-08-05T01:00:40.266Z,4.87
2022-08-05T01:03:08.903Z,4.83
2022-08-05T01:05:35.566Z,5.30
2022-08-05T01:08:41.548Z,5.63
2022-08-05T01:10:53.227Z,5.30
2022-08-05T01:13:58.335Z,5.60
2022-08-05T01:16:39.878Z,5.70
2022-08-05T01:19:30.197Z,4.90
2022-08-05T01:22:24.211Z,5.70
2022-08-05T01:24:59.476Z,4.60
2022-08-05T01:27:55.218Z,5.20
2022-08-05T01:30:34.926Z,5.30
2022-08-05T01:33:02.831Z,5.40
2022-08-05T01:35:51.758Z,5.63
2022-08-05T01:38:24.903Z,6.37
2022-08-05T01:40:57.650Z,5.20
2022-08-05T01:43:24.330Z,4.60
2022-08-05T01:45:54.084Z,5.17
2022-08-05T01:48:23.922Z,5.17
2022-08-05T01:50:51.453Z,5.33
2022-08-05T01:53:55.180Z,5.00
2022-08-05T01:56:05.914Z,5.43
2022-08-05T01:58:44.794Z,5.53
2022-08-05T02:01:13.081Z,5.10
2022-08-05T02:03:42.322Z,5.30
2022-08-05T02:06:24.037Z,5.30
2022-08-05T02:08:58.971Z,4.87
2022-08-05T02:11:33.331Z,5.27
2022-08-05T02:14:12.459Z,5.60
2022-08-05T02:16:52.286Z,5.50
2022-08-05T02:19:25.327Z,5.13
2022-08-05T02:22:26.812Z,4.80
2022-08-05T02:25:06.501Z,5.40
2022-08-05T02:27:59.017Z,4.70
2022-08-05T02:30:23.761Z,5.07
2022-08-05T02:32:55.385Z,4.90
2022-08-05T02:35:28.224Z,5.30
2022-08-05T02:38:04.147Z,5.13
2022-08-05T02:40:31.476Z,5.00
2022-08-05T02:42:58.145Z,5.93
2022-08-05T02:45:25.618Z,5.07
2022-08-05T02:48:06.537Z,5.00
2022-08-05T02:50:38.716Z,5.27
2022-08-05T02:53:11.764Z,5.60
2022-08-05T02:59:26.899Z,5.50
2022-08-05T03:01:58.069Z,5.30
2022-08-05T03:04:25.490Z,5.70
2022-08-05T03:06:55.387Z,4.90
2022-08-05T03:09:36.387Z,6.17
2022-08-05T03:12:06.253Z,5.60
2022-08-05T03:14:34.754Z,4.97
2022-08-05T03:17:12.551Z,5.20
2022-08-05T03:19:39.640Z,4.93
2022-08-05T03:22:16.802Z,4.87
2022-08-05T03:24:47.235Z,5.57
2022-08-05T03:27:17.872Z,5.80
2022-08-05T03:30:08.099Z,5.40
2022-08-05T03:32:31.458Z,5.43
2022-08-05T03:34:58.482Z,6.20
2022-08-05T03:37:25.414Z,6.33
2022-08-05T03:39:59.318Z,5.47
2022-08-05T03:42:28.914Z,5.47
2022-08-05T03:44:57.066Z,4.90
2022-08-05T03:47:24.253Z,5.50
2022-08-05T03:49:52.446Z,4.70
2022-08-05T03:52:37.668Z,5.00
2022-08-05T03:56:05.686Z,5.23
2022-08-05T03:58:12.804Z,6.00
2022-08-05T04:00:42.103Z,5.53
2022-08-05T04:03:26.650Z,6.37
2022-08-05T04:05:56.490Z,5.53
2022-08-05T04:08:35.095Z,6.00
2022-08-05T04:11:03.576Z,5.70
2022-08-05T04:13:51.171Z,6.23
2022-08-05T04:16:22.619Z,6.20
2022-08-05T04:18:54.119Z,5.97
2022-08-05T04:22:09.702Z,6.33
2022-08-05T04:24:18.754Z,5.83
2022-08-05T04:26:46.888Z,5.47
2022-08-05T04:29:14.327Z,6.50
2022-08-05T04:31:41.090Z,6.00
2022-08-05T04:34:19.010Z,5.20
2022-08-05T04:36:56.352Z,6.20
2022-08-05T04:39:23.123Z,6.73
2022-08-05T04:41:50.974Z,6.33
2022-08-05T04:44:29.362Z,6.23
2022-08-05T04:46:58.936Z,6.33
2022-08-05T04:49:38.675Z,6.27
2022-08-05T04:52:13.154Z,5.30
2022-08-05T04:54:40.246Z,6.53
2022-08-05T04:57:07.002Z,6.50
2022-08-05T04:59:38.326Z,6.00
2022-08-05T05:02:37.370Z,4.73
2022-08-05T05:05:02.753Z,5.43
2022-08-05T05:07:32.450Z,5.80
2022-08-05T05:09:59.688Z,6.03
2022-08-05T05:12:29.260Z,5.63
2022-08-05T05:14:55.993Z,6.40
2022-08-05T05:17:24.590Z,5.30
2022-08-05T05:19:55.231Z,6.10
2022-08-05T05:22:26.430Z,6.20
2022-08-05T05:24:57.319Z,5.70
2022-08-05T05:27:44.994Z,5.13
2022-08-05T05:30:15.736Z,5.80
2022-08-05T05:32:56.878Z,5.70
2022-08-05T05:35:26.946Z,4.90
2022-08-05T05:38:03.260Z,5.63
2022-08-05T05:40:32.305Z,5.37
2022-08-05T05:43:00.178Z,5.63
2022-08-05T05:45:28.987Z,5.00
2022-08-05T05:48:06.075Z,5.43
2022-08-05T05:50:35.663Z,5.30
2022-08-05T05:53:21.027Z,5.10
2022-08-05T05:55:51.851Z,5.37
2022-08-05T05:58:30.246Z,5.37
2022-08-05T06:01:12.290Z,5.53
2022-08-05T06:04:01.342Z,6.10
2022-08-05T06:06:31.130Z,5.20
2022-08-05T06:09:00.140Z,5.97
2022-08-05T06:11:29.884Z,5.60
2022-08-05T06:13:57.025Z,5.50
2022-08-05T06:16:30.335Z,5.63
2022-08-05T06:19:00.228Z,5.20
2022-08-05T06:21:35.755Z,5.53
2022-08-05T06:24:11.468Z,4.60
2022-08-05T06:26:52.022Z,7.50
2022-08-05T06:29:43.283Z,6.30
2022-08-05T06:32:21.183Z,5.77
2022-08-05T06:34:53.540Z,5.40
2022-08-05T06:37:56.037Z,5.13
2022-08-05T06:40:11.975Z,5.40
2022-08-05T06:42:39.703Z,5.20
2022-08-05T06:45:08.907Z,6.07
2022-08-05T06:48:37.016Z,4.90
2022-08-05T06:50:26.956Z,4.73
2022-08-05T06:53:03.624Z,5.37
2022-08-05T06:55:38.479Z,5.90
2022-08-05T06:58:20.071Z,4.93
2022-08-05T07:00:58.050Z,5.97
2022-08-05T07:03:32.556Z,5.83
2022-08-05T07:06:05.437Z,5.50
2022-08-05T07:08:37.205Z,5.27
2022-08-05T07:11:15.234Z,5.03
2022-08-05T07:14:01.432Z,5.27
2022-08-05T07:18:01.836Z,5.30
2022-08-05T07:22:28.699Z,5.50
2022-08-05T07:24:58.313Z,5.07
2022-08-05T07:28:00.100Z,5.13
2022-08-05T07:30:27.919Z,5.50
2022-08-05T07:32:57.597Z,5.20
2022-08-05T07:36:03.567Z,5.53
2022-08-05T07:38:12.396Z,4.53
2022-08-05T07:40:55.710Z,5.00
2022-08-05T07:43:28.308Z,5.50
2022-08-05T07:45:57.789Z,5.50
2022-08-05T07:49:00.946Z,4.93
2022-08-05T07:51:23.014Z,4.93
2022-08-05T07:53:52.068Z,5.27
2022-08-05T07:57:02.527Z,5.00
2022-08-05T07:59:08.693Z,4.80
2022-08-05T08:01:35.631Z,5.63
2022-08-05T08:04:37.426Z,4.70
2022-08-05T08:07:07.182Z,4.40
2022-08-05T08:09:34.501Z,4.83
2022-08-05T08:12:09.330Z,4.30
2022-08-05T08:14:40.741Z,4.20
2022-08-05T08:17:10.812Z,5.13
2022-08-05T08:20:10.394Z,4.30
2022-08-05T08:22:32.600Z,4.50
2022-08-05T08:25:03.139Z,4.73
2022-08-05T08:27:40.419Z,4.50
2022-08-05T08:30:18.958Z,4.10
2022-08-05T08:33:02.407Z,4.60
2022-08-05T08:35:34.856Z,3.47
2022-08-05T08:38:07.745Z,4.60
2022-08-05T08:40:35.250Z,4.27
2022-08-05T08:45:16.187Z,3.70
2022-08-05T08:45:50.071Z,3.60
2022-08-05T08:48:36.159Z,4.90
2022-08-05T08:52:01.946Z,3.33
2022-08-05T08:53:50.527Z,3.97
2022-08-05T08:56:19.318Z,4.07
2022-08-05T08:58:49.587Z,3.43
2022-08-05T09:01:19.643Z,2.90
2022-08-05T09:03:54.567Z,3.03
2022-08-05T09:06:24.285Z,2.97
2022-08-05T09:08:56.136Z,2.80
2022-08-05T09:11:51.525Z,3.37
2022-08-05T09:14:58.017Z,3.23
2022-08-05T09:16:56.122Z,2.90
2022-08-05T09:19:27.991Z,3.07
2022-08-05T09:22:17.608Z,2.40
2022-08-05T09:25:00.516Z,3.43
2022-08-05T09:28:04.448Z,3.10
2022-08-05T09:30:23.574Z,2.90
2022-08-05T09:32:51.727Z,2.20
2022-08-05T09:35:26.888Z,2.50
2022-08-05T09:38:16.907Z,2.60
2022-08-05T09:40:44.512Z,2.30
2022-08-05T09:43:41.255Z,2.40
2022-08-05T09:46:27.582Z,2.37
2022-08-05T09:49:07.255Z,2.73
2022-08-05T09:51:38.104Z,2.50
2022-08-05T09:54:10.066Z,2.40
2022-08-05T09:56:51.510Z,2.47
2022-08-05T09:59:19.131Z,2.67
2022-08-05T10:01:47.395Z,2.93
2022-08-05T10:04:16.105Z,3.03
2022-08-05T10:06:58.846Z,3.30
2022-08-05T10:09:29.661Z,3.07
2022-08-05T10:12:30.576Z,2.30
2022-08-05T10:15:21.769Z,2.63
2022-08-05T10:18:12.356Z,2.77
2022-08-05T10:20:48.290Z,2.43
2022-08-05T10:23:34.299Z,2.43
2022-08-05T10:26:07.123Z,2.90
2022-08-05T10:28:36.768Z,3.23
2022-08-05T10:32:52.877Z,2.80
2022-08-05T10:33:52.370Z,2.90
2022-08-05T10:36:23.599Z,2.83
2022-08-05T10:38:58.277Z,2.97
2022-08-05T10:41:46.742Z,2.53
2022-08-05T10:44:19.636Z,3.00
2022-08-05T10:46:50.890Z,2.60
2022-08-05T10:49:27.543Z,3.10
2022-08-05T10:52:03.299Z,3.17
2022-08-05T10:55:08.092Z,2.87
2022-08-05T10:57:39.418Z,2.77
2022-08-05T11:00:19.683Z,3.30
2022-08-05T11:03:24.551Z,2.80
2022-08-05T11:06:15.284Z,2.75
2022-08-05T11:09:32.124Z,2.45
2022-08-05T11:12:10.804Z,2.35
2022-08-05T11:17:56.809Z,2.83
2022-08-05T11:20:34.187Z,3.50
2022-08-05T11:23:05.972Z,3.22
2022-08-05T11:26:06.074Z,3.03
2022-08-05T11:28:25.323Z,2.75
2022-08-05T11:31:01.420Z,2.75
2022-08-05T11:33:46.096Z,2.67
2022-08-05T11:36:16.373Z,3.15
2022-08-05T11:39:01.487Z,3.00
2022-08-05T11:41:56.267Z,2.85
2022-08-05T11:44:40.541Z,2.97
2022-08-05T11:47:11.777Z,2.90
2022-08-05T11:49:43.238Z,2.58
2022-08-05T11:52:29.818Z,2.67
2022-08-05T11:55:07.135Z,3.00
2022-08-05T11:58:08.249Z,2.80
2022-08-05T12:00:31.489Z,3.30
2022-08-05T12:02:58.437Z,3.20
2022-08-05T12:05:36.312Z,3.20
2022-08-05T12:08:10.943Z,3.08
2022-08-05T12:10:45.147Z,2.75
2022-08-05T12:13:18.700Z,2.58
2022-08-05T12:16:14.923Z,2.92
2022-08-05T12:18:42.617Z,3.90
2022-08-05T12:21:19.419Z,3.40
2022-08-05T12:24:04.432Z,2.95
2022-08-05T12:26:43.914Z,3.00
2022-08-05T12:29:16.374Z,3.13
2022-08-05T12:31:53.611Z,2.70
2022-08-05T12:34:23.753Z,2.45
2022-08-05T12:36:53.332Z,2.65
2022-08-05T12:39:20.361Z,2.80
2022-08-05T12:41:47.115Z,3.03
2022-08-05T12:44:21.762Z,2.53
2022-08-05T12:47:00.771Z,2.65
2022-08-05T12:50:04.251Z,3.40
2022-08-05T12:52:30.419Z,3.17
2022-08-05T12:55:02.295Z,2.72
2022-08-05T12:57:28.935Z,2.90
2022-08-05T13:02:04.443Z,2.80
2022-08-05T13:03:12.275Z,3.10
2022-08-05T13:05:41.578Z,2.92
2022-08-05T13:08:08.963Z,2.75
2022-08-05T13:10:50.344Z,2.97
2022-08-05T13:14:04.609Z,2.72
2022-08-05T13:16:12.998Z,3.00
2022-08-05T13:18:55.141Z,3.15
2022-08-05T13:21:28.374Z,2.78
2022-08-05T13:24:05.843Z,3.13
2022-08-05T13:26:35.721Z,2.70
2022-08-05T13:29:02.387Z,2.63
2022-08-05T13:31:34.103Z,3.33
2022-08-05T13:34:25.062Z,2.63
2022-08-05T13:36:56.354Z,2.40
2022-08-05T13:40:14.630Z,2.83
2022-08-05T13:42:14.425Z,2.53
2022-08-05T13:44:46.176Z,3.13
2022-08-05T13:47:35.920Z,2.60
2022-08-05T13:50:06.598Z,2.22
2022-08-05T13:52:41.182Z,2.58
2022-08-05T13:55:11.004Z,2.80
2022-08-05T13:57:50.935Z,2.58
2022-08-05T14:00:26.922Z,3.15
2022-08-05T14:02:57.459Z,3.42
2022-08-05T14:05:48.609Z,2.58
2022-08-05T14:08:20.164Z,2.85
2022-08-05T14:10:48.390Z,2.65
2022-08-05T14:13:15.458Z,2.85
2022-08-05T14:16:08.864Z,3.33
2022-08-05T14:18:29.062Z,2.83
2022-08-05T14:20:57.190Z,2.60
2022-08-05T14:23:33.621Z,2.90
2022-08-05T14:26:03.413Z,2.88
2022-08-05T14:28:31.702Z,3.50
2022-08-05T14:30:58.744Z,3.00
2022-08-05T14:33:25.605Z,2.78
2022-08-05T14:35:54.464Z,3.00
2022-08-05T14:38:32.789Z,3.33
2022-08-05T14:41:07.508Z,2.67
2022-08-05T14:44:01.833Z,3.10
2022-08-05T14:46:28.698Z,3.40
2022-08-05T14:49:06.619Z,2.90
2022-08-05T14:51:35.187Z,3.38
2022-08-05T14:54:28.853Z,3.40
2022-08-05T14:56:48.607Z,3.10
2022-08-05T14:59:15.463Z,3.33
2022-08-05T15:01:48.342Z,2.90
2022-08-05T15:04:20.560Z,3.33
2022-08-05T15:06:48.953Z,3.08
2022-08-05T15:09:51.287Z,2.90
2022-08-05T15:12:09.095Z,3.15
2022-08-05T15:14:48.401Z,3.03
2022-08-05T15:17:47.456Z,3.00
2022-08-05T15:20:05.146Z,3.30
2022-08-05T15:22:53.979Z,3.35
2022-08-05T15:25:41.006Z,3.38
2022-08-05T15:28:13.184Z,3.28
2022-08-05T15:30:41.500Z,3.60
2022-08-05T15:33:10.208Z,3.33
2022-08-05T15:35:45.297Z,3.08
2022-08-05T15:38:47.855Z,2.70
2022-08-05T15:41:20.768Z,3.17
2022-08-05T15:43:47.066Z,3.30
2022-08-05T15:46:14.079Z,3.10
2022-08-05T15:48:41.016Z,2.78
2022-08-05T15:51:22.598Z,3.28
2022-08-05T15:54:09.206Z,2.63
2022-08-05T15:56:41.828Z,3.08
2022-08-05T15:59:08.471Z,3.33
2022-08-05T16:01:39.660Z,2.88
2022-08-05T16:04:19.817Z,3.38
2022-08-05T16:06:46.506Z,3.15
2022-08-05T16:09:13.510Z,3.20
2022-08-05T16:11:43.492Z,3.03
2022-08-05T16:14:10.741Z,3.40
2022-08-05T16:16:44.254Z,2.92
2022-08-05T16:19:25.720Z,3.30
2022-08-05T16:22:02.791Z,2.80
2022-08-05T16:24:41.810Z,2.70
2022-08-05T16:27:17.190Z,3.40
2022-08-05T16:29:50.284Z,2.65
2022-08-05T16:32:18.411Z,3.17
2022-08-05T16:34:58.949Z,2.92
2022-08-05T16:38:11.943Z,2.90
2022-08-05T16:40:20.187Z,5.63
2022-08-05T16:42:53.476Z,2.92
2022-08-05T16:46:04.728Z,2.93
2022-08-05T16:48:06.966Z,3.00
2022-08-05T16:50:37.658Z,2.70
2022-08-05T16:53:12.354Z,2.70
2022-08-05T16:55:48.972Z,3.07
2022-08-05T16:58:15.624Z,2.80
2022-08-05T17:00:47.007Z,2.53
2022-08-05T17:03:20.593Z,3.00
2022-08-05T17:05:54.057Z,3.40
2022-08-05T17:08:36.685Z,3.10
2022-08-05T17:11:16.872Z,2.43
2022-08-05T17:13:44.527Z,2.50
2022-08-05T17:16:32.599Z,2.70
2022-08-05T17:18:58.521Z,3.13
2022-08-05T17:21:25.204Z,3.10
2022-08-05T17:24:04.568Z,2.40
2022-08-05T17:26:41.186Z,2.57
2022-08-05T17:29:10.056Z,2.70
2022-08-05T17:31:41.445Z,3.00
2022-08-05T17:34:30.199Z,2.87
2022-08-05T17:36:59.995Z,2.30
2022-08-05T17:39:34.469Z,2.57
2022-08-05T17:42:20.294Z,3.10
2022-08-05T17:44:50.102Z,2.97
2022-08-05T17:47:22.430Z,2.43
2022-08-05T17:50:04.222Z,2.80
2022-08-05T17:52:53.376Z,2.80
2022-08-05T17:55:22.476Z,2.63
2022-08-05T17:57:54.808Z,2.70
2022-08-05T18:00:21.498Z,2.20
2022-08-05T18:02:58.412Z,2.47
2022-08-05T18:05:28.003Z,2.20
2022-08-05T18:07:56.798Z,3.03
2022-08-05T18:10:23.832Z,2.87
2022-08-05T18:12:50.964Z,2.63
2022-08-05T18:15:20.919Z,3.07
2022-08-05T18:18:00.795Z,3.20
2022-08-05T18:20:31.874Z,3.50
2022-08-05T18:23:00.554Z,4.30
2022-08-05T18:25:39.095Z,3.60
2022-08-05T18:28:06.592Z,3.60
2022-08-05T18:30:33.892Z,3.50
2022-08-05T18:33:01.043Z,3.37
2022-08-05T18:36:00.911Z,3.40
2022-08-05T18:38:18.938Z,3.40
2022-08-05T18:41:57.939Z,3.17
2022-08-05T18:43:38.359Z,3.40
2022-08-05T18:46:09.968Z,3.60
2022-08-05T18:48:41.862Z,3.40
2022-08-05T18:52:06.257Z,3.30
2022-08-05T18:54:14.756Z,3.00
2022-08-05T18:56:51.248Z,3.20
2022-08-05T18:59:44.199Z,3.20
2022-08-05T19:02:11.273Z,3.17
2022-08-05T19:05:01.187Z,3.40
2022-08-05T19:07:29.792Z,2.93
2022-08-05T19:10:12.209Z,2.73
2022-08-05T19:12:38.948Z,2.90
2022-08-05T19:15:06.215Z,2.60
2022-08-05T19:17:59.506Z,3.53
2022-08-05T19:20:37.116Z,2.73
2022-08-05T19:23:08.490Z,2.77
2022-08-05T19:25:49.927Z,3.10
2022-08-05T19:28:27.963Z,2.90
2022-08-05T19:30:55.918Z,2.97
2022-08-05T19:33:35.154Z,3.00
2022-08-05T19:36:06.771Z,2.80
2022-08-05T19:38:35.595Z,2.60
2022-08-05T19:41:03.103Z,3.10
2022-08-05T19:44:07.047Z,2.67
2022-08-05T19:46:30.268Z,2.83
2022-08-05T19:49:01.192Z,3.87
2022-08-05T19:52:05.668Z,2.90
2022-08-05T19:54:26.844Z,2.83
2022-08-05T19:57:06.632Z,3.13
2022-08-05T19:59:56.020Z,2.80
2022-08-05T20:02:24.078Z,3.13
2022-08-05T20:04:53.037Z,3.23
2022-08-05T20:07:46.591Z,3.33
2022-08-05T20:10:13.197Z,3.60
2022-08-05T20:12:46.454Z,3.00
2022-08-05T20:15:48.452Z,2.60
2022-08-05T20:18:09.807Z,3.37
2022-08-05T20:20:46.948Z,3.70
2022-08-05T20:23:13.958Z,3.63
2022-08-05T20:25:41.840Z,2.90
2022-08-05T20:28:14.500Z,3.47
2022-08-05T20:30:42.020Z,3.33
2022-08-05T20:33:11.255Z,3.93
2022-08-05T20:35:45.486Z,3.20
2022-08-05T20:38:14.455Z,3.53
2022-08-05T20:40:50.502Z,4.30
2022-08-05T20:43:57.376Z,3.40
2022-08-05T20:46:06.735Z,3.50
2022-08-05T20:48:36.089Z,4.23
2022-08-05T20:51:08.006Z,3.33
2022-08-05T20:53:40.550Z,3.33
2022-08-05T20:56:09.483Z,3.60
2022-08-05T20:58:37.151Z,3.53
2022-08-05T21:01:04.334Z,4.10
2022-08-05T21:03:34.502Z,3.93
2022-08-05T21:06:01.919Z,3.70
2022-08-05T21:08:41.576Z,4.40
2022-08-05T21:11:12.833Z,4.50
2022-08-05T21:13:48.119Z,3.63
2022-08-05T21:16:29.163Z,4.40
2022-08-05T21:18:57.148Z,4.50
2022-08-05T21:21:43.943Z,4.60
2022-08-05T21:24:15.645Z,4.50
2022-08-05T21:26:47.224Z,5.77
2022-08-05T21:29:20.607Z,4.40
2022-08-05T21:31:53.017Z,4.30
2022-08-05T21:34:20.466Z,4.87
2022-08-05T21:36:48.951Z,4.77
2022-08-05T21:39:17.036Z,5.53
2022-08-05T21:42:01.466Z,5.60
2022-08-05T21:44:29.509Z,4.73
2022-08-05T21:46:58.228Z,4.80
2022-08-05T21:50:00.414Z,5.87
2022-08-05T21:52:22.299Z,5.33
2022-08-05T21:54:55.107Z,5.33
2022-08-05T21:57:31.209Z,5.57
2022-08-05T22:00:07.098Z,6.50
2022-08-05T22:02:38.303Z,5.90
2022-08-05T22:05:05.393Z,6.20
2022-08-05T22:07:39.288Z,7.13
2022-08-05T22:10:26.805Z,6.87
2022-08-05T22:12:54.828Z,6.53
2022-08-05T22:16:02.754Z,6.40
2022-08-05T22:18:11.170Z,7.17
2022-08-05T22:20:38.928Z,7.00
2022-08-05T22:23:24.441Z,7.53
2022-08-05T22:26:11.808Z,6.67
2022-08-05T22:28:42.069Z,7.43
2022-08-05T22:31:08.850Z,6.90
2022-08-05T22:33:56.630Z,7.97
2022-08-05T22:36:24.785Z,7.47
2022-08-05T22:38:51.509Z,8.27
2022-08-05T22:42:05.684Z,8.40
2022-08-05T22:44:07.851Z,7.47
2022-08-05T22:46:39.474Z,8.20
2022-08-05T22:49:12.422Z,7.90
2022-08-05T22:52:04.364Z,7.90
2022-08-05T22:54:31.753Z,8.87
2022-08-05T22:56:59.668Z,8.50
2022-08-05T22:59:44.252Z,8.57
2022-08-05T23:02:16.617Z,8.63
2022-08-05T23:04:52.156Z,7.93
2022-08-05T23:07:21.898Z,7.73
2022-08-05T23:09:53.345Z,9.10
2022-08-05T23:12:25.466Z,9.03
2022-08-05T23:14:55.768Z,8.67
2022-08-05T23:17:34.480Z,8.60
2022-08-05T23:20:16.616Z,9.00
2022-08-05T23:22:47.606Z,10.37
2022-08-05T23:25:17.412Z,8.57
2022-08-05T23:28:02.663Z,10.77
2022-08-05T23:30:31.180Z,10.40
2022-08-05T23:32:58.915Z,9.70
2022-08-05T23:35:28.680Z,11.20
2022-08-05T23:38:01.036Z,12.17
2022-08-05T23:40:28.223Z,11.80
2022-08-05T23:42:55.727Z,11.57
2022-08-05T23:45:23.793Z,12.23
2022-08-05T23:47:53.839Z,12.10
2022-08-05T23:50:26.624Z,12.70
2022-08-05T23:52:55.282Z,13.40
2022-08-05T23:55:22.466Z,12.63
2022-08-05T23:57:57.489Z,13.73
